sensor_id;sensor_type;location;lat;lon;timestamp;temperature;humidity
64670;DHT22;51080;51.690;5.174;2023-04-24T00:01:21;9.60;87.30
64670;DHT22;51080;51.690;5.174;2023-04-24T00:07:36;9.60;87.50
64670;DHT22;51080;51.690;5.174;2023-04-24T00:13:50;9.60;87.30
64670;DHT22;51080;51.690;5.174;2023-04-24T00:20:06;9.60;87.70
64670;DHT22;51080;51.690;5.174;2023-04-24T00:26:21;9.60;87.40
64670;DHT22;51080;51.690;5.174;2023-04-24T00:32:35;9.60;87.30
64670;DHT22;51080;51.690;5.174;2023-04-24T00:38:50;9.60;87.40
64670;DHT22;51080;51.690;5.174;2023-04-24T00:45:05;9.60;87.60
64670;DHT22;51080;51.690;5.174;2023-04-24T00:51:20;9.50;87.40
64670;DHT22;51080;51.690;5.174;2023-04-24T00:57:34;9.60;87.10
64670;DHT22;51080;51.690;5.174;2023-04-24T01:03:49;9.60;87.20
64670;DHT22;51080;51.690;5.174;2023-04-24T01:10:06;9.60;87.50
64670;DHT22;51080;51.690;5.174;2023-04-24T01:16:20;9.60;87.10
64670;DHT22;51080;51.690;5.174;2023-04-24T01:22:35;9.60;87.20
64670;DHT22;51080;51.690;5.174;2023-04-24T01:28:52;9.60;86.80
64670;DHT22;51080;51.690;5.174;2023-04-24T01:35:10;9.60;86.90
64670;DHT22;51080;51.690;5.174;2023-04-24T01:41:25;9.70;86.60
64670;DHT22;51080;51.690;5.174;2023-04-24T01:47:50;9.70;86.50
64670;DHT22;51080;51.690;5.174;2023-04-24T01:54:05;9.70;86.20
64670;DHT22;51080;51.690;5.174;2023-04-24T02:00:20;9.70;86.10
64670;DHT22;51080;51.690;5.174;2023-04-24T02:06:34;9.70;86.60
64670;DHT22;51080;51.690;5.174;2023-04-24T02:12:49;9.70;86.80
64670;DHT22;51080;51.690;5.174;2023-04-24T02:19:13;9.60;86.90
64670;DHT22;51080;51.690;5.174;2023-04-24T02:25:28;9.50;87.20
64670;DHT22;51080;51.690;5.174;2023-04-24T02:31:43;9.50;87.50
64670;DHT22;51080;51.690;5.174;2023-04-24T02:37:57;9.50;87.20
64670;DHT22;51080;51.690;5.174;2023-04-24T02:44:12;9.40;87.10
64670;DHT22;51080;51.690;5.174;2023-04-24T02:50:28;9.40;86.90
64670;DHT22;51080;51.690;5.174;2023-04-24T02:56:41;9.30;87.30
64670;DHT22;51080;51.690;5.174;2023-04-24T03:02:56;9.30;87.20
64670;DHT22;51080;51.690;5.174;2023-04-24T03:09:13;9.20;88.00
64670;DHT22;51080;51.690;5.174;2023-04-24T03:15:41;9.20;87.10
64670;DHT22;51080;51.690;5.174;2023-04-24T03:21:56;9.10;86.90
64670;DHT22;51080;51.690;5.174;2023-04-24T03:28:11;9.10;86.60
64670;DHT22;51080;51.690;5.174;2023-04-24T03:34:25;9.10;86.60
64670;DHT22;51080;51.690;5.174;2023-04-24T03:40:41;9.00;86.70
64670;DHT22;51080;51.690;5.174;2023-04-24T03:46:57;9.00;87.10
64670;DHT22;51080;51.690;5.174;2023-04-24T03:53:12;8.90;87.30
64670;DHT22;51080;51.690;5.174;2023-04-24T03:59:25;8.90;87.80
64670;DHT22;51080;51.690;5.174;2023-04-24T04:05:40;8.90;87.90
64670;DHT22;51080;51.690;5.174;2023-04-24T04:11:55;8.80;88.30
64670;DHT22;51080;51.690;5.174;2023-04-24T04:18:10;8.80;88.60
64670;DHT22;51080;51.690;5.174;2023-04-24T04:24:25;8.80;88.50
64670;DHT22;51080;51.690;5.174;2023-04-24T04:30:41;8.80;88.40
64670;DHT22;51080;51.690;5.174;2023-04-24T04:36:56;8.80;88.80
64670;DHT22;51080;51.690;5.174;2023-04-24T04:43:11;8.80;90.30
64670;DHT22;51080;51.690;5.174;2023-04-24T04:49:25;8.80;90.40
64670;DHT22;51080;51.690;5.174;2023-04-24T04:55:43;8.80;90.20
64670;DHT22;51080;51.690;5.174;2023-04-24T05:02:05;8.80;91.70
64670;DHT22;51080;51.690;5.174;2023-04-24T05:08:23;8.80;92.10
64670;DHT22;51080;51.690;5.174;2023-04-24T05:14:43;8.80;92.20
64670;DHT22;51080;51.690;5.174;2023-04-24T05:21:00;8.80;92.80
64670;DHT22;51080;51.690;5.174;2023-04-24T05:27:19;8.80;93.40
64670;DHT22;51080;51.690;5.174;2023-04-24T05:33:37;8.80;92.80
64670;DHT22;51080;51.690;5.174;2023-04-24T05:39:55;8.90;92.60
64670;DHT22;51080;51.690;5.174;2023-04-24T05:46:10;8.90;92.30
64670;DHT22;51080;51.690;5.174;2023-04-24T05:52:38;9.00;91.80
64670;DHT22;51080;51.690;5.174;2023-04-24T05:58:52;9.00;91.40
64670;DHT22;51080;51.690;5.174;2023-04-24T06:05:12;9.00;91.50
64670;DHT22;51080;51.690;5.174;2023-04-24T06:11:31;9.00;91.80
64670;DHT22;51080;51.690;5.174;2023-04-24T06:17:47;9.00;93.60
64670;DHT22;51080;51.690;5.174;2023-04-24T06:24:05;9.00;93.60
64670;DHT22;51080;51.690;5.174;2023-04-24T06:30:25;8.90;92.80
64670;DHT22;51080;51.690;5.174;2023-04-24T06:36:44;8.80;92.40
64670;DHT22;51080;51.690;5.174;2023-04-24T06:43:02;8.80;92.30
64670;DHT22;51080;51.690;5.174;2023-04-24T06:49:21;8.80;91.80
64670;DHT22;51080;51.690;5.174;2023-04-24T06:55:38;8.70;91.60
64670;DHT22;51080;51.690;5.174;2023-04-24T07:01:57;8.60;91.50
64670;DHT22;51080;51.690;5.174;2023-04-24T07:08:17;8.60;91.10
64670;DHT22;51080;51.690;5.174;2023-04-24T07:14:32;8.60;91.30
64670;DHT22;51080;51.690;5.174;2023-04-24T07:20:46;8.60;91.00
64670;DHT22;51080;51.690;5.174;2023-04-24T07:27:01;8.60;91.30
64670;DHT22;51080;51.690;5.174;2023-04-24T07:33:17;8.50;91.00
64670;DHT22;51080;51.690;5.174;2023-04-24T07:39:32;8.50;90.90
64670;DHT22;51080;51.690;5.174;2023-04-24T07:45:47;8.50;90.60
64670;DHT22;51080;51.690;5.174;2023-04-24T07:52:02;8.50;90.60
64670;DHT22;51080;51.690;5.174;2023-04-24T07:58:16;8.50;90.20
64670;DHT22;51080;51.690;5.174;2023-04-24T08:04:32;8.50;90.10
64670;DHT22;51080;51.690;5.174;2023-04-24T08:10:49;8.50;90.30
64670;DHT22;51080;51.690;5.174;2023-04-24T08:17:05;8.60;91.10
64670;DHT22;51080;51.690;5.174;2023-04-24T08:23:20;8.60;91.70
64670;DHT22;51080;51.690;5.174;2023-04-24T08:29:34;8.50;91.20
64670;DHT22;51080;51.690;5.174;2023-04-24T08:35:50;8.50;90.80
64670;DHT22;51080;51.690;5.174;2023-04-24T08:42:05;8.50;90.40
64670;DHT22;51080;51.690;5.174;2023-04-24T08:48:22;8.60;90.30
64670;DHT22;51080;51.690;5.174;2023-04-24T08:54:41;8.60;90.00
64670;DHT22;51080;51.690;5.174;2023-04-24T09:01:00;8.60;89.60
64670;DHT22;51080;51.690;5.174;2023-04-24T09:07:17;8.50;88.80
64670;DHT22;51080;51.690;5.174;2023-04-24T09:13:34;8.60;88.40
64670;DHT22;51080;51.690;5.174;2023-04-24T09:19:51;8.60;88.90
64670;DHT22;51080;51.690;5.174;2023-04-24T09:26:09;8.80;88.70
64670;DHT22;51080;51.690;5.174;2023-04-24T09:32:28;8.70;87.20
64670;DHT22;51080;51.690;5.174;2023-04-24T09:38:46;8.60;86.70
64670;DHT22;51080;51.690;5.174;2023-04-24T09:45:10;8.50;87.00
64670;DHT22;51080;51.690;5.174;2023-04-24T09:51:35;8.50;87.20
64670;DHT22;51080;51.690;5.174;2023-04-24T09:58:00;8.60;87.80
64670;DHT22;51080;51.690;5.174;2023-04-24T10:04:28;8.60;86.40
64670;DHT22;51080;51.690;5.174;2023-04-24T10:10:46;8.70;86.10
64670;DHT22;51080;51.690;5.174;2023-04-24T10:17:00;8.60;85.70
64670;DHT22;51080;51.690;5.174;2023-04-24T10:23:16;8.60;84.70
64670;DHT22;51080;51.690;5.174;2023-04-24T10:29:31;8.50;84.10
64670;DHT22;51080;51.690;5.174;2023-04-24T10:35:48;8.50;85.40
64670;DHT22;51080;51.690;5.174;2023-04-24T10:42:15;8.80;83.80
64670;DHT22;51080;51.690;5.174;2023-04-24T10:48:31;8.70;82.10
64670;DHT22;51080;51.690;5.174;2023-04-24T10:54:48;8.70;82.30
64670;DHT22;51080;51.690;5.174;2023-04-24T11:01:04;8.80;82.40
64670;DHT22;51080;51.690;5.174;2023-04-24T11:07:20;9.00;83.30
64670;DHT22;51080;51.690;5.174;2023-04-24T11:20:17;9.50;82.20
64670;DHT22;51080;51.690;5.174;2023-04-24T11:26:36;9.50;79.10
64670;DHT22;51080;51.690;5.174;2023-04-24T11:32:53;9.40;79.90
64670;DHT22;51080;51.690;5.174;2023-04-24T11:39:07;9.30;78.90
64670;DHT22;51080;51.690;5.174;2023-04-24T11:45:24;9.20;79.50
64670;DHT22;51080;51.690;5.174;2023-04-24T11:51:39;9.20;79.90
64670;DHT22;51080;51.690;5.174;2023-04-24T11:57:55;9.50;80.70
64670;DHT22;51080;51.690;5.174;2023-04-24T12:04:10;9.70;79.40
64670;DHT22;51080;51.690;5.174;2023-04-24T12:10:26;9.70;77.90
64670;DHT22;51080;51.690;5.174;2023-04-24T12:16:41;9.70;78.80
64670;DHT22;51080;51.690;5.174;2023-04-24T12:22:57;9.70;78.90
64670;DHT22;51080;51.690;5.174;2023-04-24T12:29:20;9.70;78.70
64670;DHT22;51080;51.690;5.174;2023-04-24T12:35:35;9.60;78.90
64670;DHT22;51080;51.690;5.174;2023-04-24T12:41:57;9.40;80.70
64670;DHT22;51080;51.690;5.174;2023-04-24T12:48:12;9.40;82.30
64670;DHT22;51080;51.690;5.174;2023-04-24T12:54:32;9.90;82.90
64670;DHT22;51080;51.690;5.174;2023-04-24T13:00:48;10.50;80.50
64670;DHT22;51080;51.690;5.174;2023-04-24T13:07:03;10.60;78.70
64670;DHT22;51080;51.690;5.174;2023-04-24T13:13:17;10.90;78.80
64670;DHT22;51080;51.690;5.174;2023-04-24T13:19:36;11.40;77.00
64670;DHT22;51080;51.690;5.174;2023-04-24T13:26:00;11.20;76.90
64670;DHT22;51080;51.690;5.174;2023-04-24T13:32:17;10.80;73.60
64670;DHT22;51080;51.690;5.174;2023-04-24T13:38:31;10.50;76.40
64670;DHT22;51080;51.690;5.174;2023-04-24T13:44:46;10.50;77.70
64670;DHT22;51080;51.690;5.174;2023-04-24T13:50:59;10.80;75.50
64670;DHT22;51080;51.690;5.174;2023-04-24T13:57:13;10.90;75.80
64670;DHT22;51080;51.690;5.174;2023-04-24T14:03:27;11.20;75.00
64670;DHT22;51080;51.690;5.174;2023-04-24T14:09:42;11.60;75.90
64670;DHT22;51080;51.690;5.174;2023-04-24T14:15:57;11.80;74.60
64670;DHT22;51080;51.690;5.174;2023-04-24T14:22:13;11.80;72.80
64670;DHT22;51080;51.690;5.174;2023-04-24T14:28:29;11.90;71.40
64670;DHT22;51080;51.690;5.174;2023-04-24T14:34:42;12.00;71.70
64670;DHT22;51080;51.690;5.174;2023-04-24T14:40:56;11.80;71.20
64670;DHT22;51080;51.690;5.174;2023-04-24T14:47:10;11.20;74.70
64670;DHT22;51080;51.690;5.174;2023-04-24T14:53:29;10.60;76.80
64670;DHT22;51080;51.690;5.174;2023-04-24T14:59:42;10.40;78.50
64670;DHT22;51080;51.690;5.174;2023-04-24T15:05:57;10.30;78.40
64670;DHT22;51080;51.690;5.174;2023-04-24T15:12:11;10.30;79.70
64670;DHT22;51080;51.690;5.174;2023-04-24T15:18:25;10.60;77.70
64670;DHT22;51080;51.690;5.174;2023-04-24T15:24:40;10.60;76.70
64670;DHT22;51080;51.690;5.174;2023-04-24T15:30:54;10.60;77.00
64670;DHT22;51080;51.690;5.174;2023-04-24T15:37:09;10.90;75.50
64670;DHT22;51080;51.690;5.174;2023-04-24T15:43:32;10.90;74.00
64670;DHT22;51080;51.690;5.174;2023-04-24T15:49:48;10.80;76.40
64670;DHT22;51080;51.690;5.174;2023-04-24T15:56:04;11.20;73.80
64670;DHT22;51080;51.690;5.174;2023-04-24T16:02:18;11.00;72.90
64670;DHT22;51080;51.690;5.174;2023-04-24T16:08:34;11.00;72.40
64670;DHT22;51080;51.690;5.174;2023-04-24T16:14:50;11.00;73.50
64670;DHT22;51080;51.690;5.174;2023-04-24T16:21:05;11.00;71.50
64670;DHT22;51080;51.690;5.174;2023-04-24T16:27:24;11.00;69.80
64670;DHT22;51080;51.690;5.174;2023-04-24T16:33:46;10.90;70.20
64670;DHT22;51080;51.690;5.174;2023-04-24T16:40:07;10.90;71.10
64670;DHT22;51080;51.690;5.174;2023-04-24T16:46:22;10.90;72.00
64670;DHT22;51080;51.690;5.174;2023-04-24T16:52:37;10.80;71.80
64670;DHT22;51080;51.690;5.174;2023-04-24T16:58:52;10.70;71.70
64670;DHT22;51080;51.690;5.174;2023-04-24T17:05:07;10.50;72.90
64670;DHT22;51080;51.690;5.174;2023-04-24T17:11:23;10.40;71.90
64670;DHT22;51080;51.690;5.174;2023-04-24T17:17:37;10.30;72.80
64670;DHT22;51080;51.690;5.174;2023-04-24T17:23:53;10.30;72.80
64670;DHT22;51080;51.690;5.174;2023-04-24T17:30:11;10.30;71.60
64670;DHT22;51080;51.690;5.174;2023-04-24T17:36:36;10.20;70.10
64670;DHT22;51080;51.690;5.174;2023-04-24T17:42:51;10.20;72.60
64670;DHT22;51080;51.690;5.174;2023-04-24T17:49:06;10.20;73.60
64670;DHT22;51080;51.690;5.174;2023-04-24T17:55:21;10.10;71.40
64670;DHT22;51080;51.690;5.174;2023-04-24T18:01:37;10.00;68.90
64670;DHT22;51080;51.690;5.174;2023-04-24T18:08:01;9.80;69.60
64670;DHT22;51080;51.690;5.174;2023-04-24T18:14:17;9.70;70.50
64670;DHT22;51080;51.690;5.174;2023-04-24T18:20:44;9.60;68.10
64670;DHT22;51080;51.690;5.174;2023-04-24T18:26:59;9.40;70.20
64670;DHT22;51080;51.690;5.174;2023-04-24T18:33:24;9.30;69.50
64670;DHT22;51080;51.690;5.174;2023-04-24T18:39:39;9.20;68.90
64670;DHT22;51080;51.690;5.174;2023-04-24T18:45:53;9.10;69.80
64670;DHT22;51080;51.690;5.174;2023-04-24T18:52:08;8.90;70.50
64670;DHT22;51080;51.690;5.174;2023-04-24T18:58:22;8.80;70.40
64670;DHT22;51080;51.690;5.174;2023-04-24T19:04:36;8.70;71.00
64670;DHT22;51080;51.690;5.174;2023-04-24T19:10:51;8.60;71.60
64670;DHT22;51080;51.690;5.174;2023-04-24T19:17:06;8.50;71.80
64670;DHT22;51080;51.690;5.174;2023-04-24T19:23:20;8.40;72.00
64670;DHT22;51080;51.690;5.174;2023-04-24T19:29:34;8.40;72.50
64670;DHT22;51080;51.690;5.174;2023-04-24T19:35:48;8.30;72.80
64670;DHT22;51080;51.690;5.174;2023-04-24T19:42:03;8.20;72.60
64670;DHT22;51080;51.690;5.174;2023-04-24T19:48:18;8.10;73.10
64670;DHT22;51080;51.690;5.174;2023-04-24T19:54:33;8.10;73.10
64670;DHT22;51080;51.690;5.174;2023-04-24T20:00:48;8.00;73.10
64670;DHT22;51080;51.690;5.174;2023-04-24T20:07:02;7.90;73.30
64670;DHT22;51080;51.690;5.174;2023-04-24T20:13:17;7.90;73.50
64670;DHT22;51080;51.690;5.174;2023-04-24T20:19:32;7.80;73.50
64670;DHT22;51080;51.690;5.174;2023-04-24T20:25:49;7.70;73.70
64670;DHT22;51080;51.690;5.174;2023-04-24T20:32:03;7.70;74.10
64670;DHT22;51080;51.690;5.174;2023-04-24T20:38:18;7.70;74.30
64670;DHT22;51080;51.690;5.174;2023-04-24T20:44:33;7.60;74.50
64670;DHT22;51080;51.690;5.174;2023-04-24T20:50:48;7.60;74.90
64670;DHT22;51080;51.690;5.174;2023-04-24T20:57:02;7.50;75.00
64670;DHT22;51080;51.690;5.174;2023-04-24T21:03:17;7.40;75.10
64670;DHT22;51080;51.690;5.174;2023-04-24T21:09:31;7.40;75.20
64670;DHT22;51080;51.690;5.174;2023-04-24T21:15:46;7.30;75.70
64670;DHT22;51080;51.690;5.174;2023-04-24T21:22:01;7.30;75.50
64670;DHT22;51080;51.690;5.174;2023-04-24T21:28:17;7.20;75.60
64670;DHT22;51080;51.690;5.174;2023-04-24T21:34:31;7.20;75.80
64670;DHT22;51080;51.690;5.174;2023-04-24T21:40:46;7.10;75.90
64670;DHT22;51080;51.690;5.174;2023-04-24T21:47:01;7.10;76.00
64670;DHT22;51080;51.690;5.174;2023-04-24T21:53:16;7.10;76.10
64670;DHT22;51080;51.690;5.174;2023-04-24T21:59:32;7.00;76.20
64670;DHT22;51080;51.690;5.174;2023-04-24T22:05:49;7.00;76.20
64670;DHT22;51080;51.690;5.174;2023-04-24T22:12:05;7.00;75.70
64670;DHT22;51080;51.690;5.174;2023-04-24T22:18:22;7.00;75.80
64670;DHT22;51080;51.690;5.174;2023-04-24T22:24:36;6.90;75.70
64670;DHT22;51080;51.690;5.174;2023-04-24T22:30:51;6.90;76.20
64670;DHT22;51080;51.690;5.174;2023-04-24T22:37:05;6.90;76.50
64670;DHT22;51080;51.690;5.174;2023-04-24T22:43:21;6.80;76.40
64670;DHT22;51080;51.690;5.174;2023-04-24T22:49:36;6.80;76.40
64670;DHT22;51080;51.690;5.174;2023-04-24T22:55:52;6.80;76.50
64670;DHT22;51080;51.690;5.174;2023-04-24T23:02:06;6.70;76.70
64670;DHT22;51080;51.690;5.174;2023-04-24T23:08:20;6.70;77.10
64670;DHT22;51080;51.690;5.174;2023-04-24T23:14:35;6.70;78.10
64670;DHT22;51080;51.690;5.174;2023-04-24T23:20:50;6.80;77.70
64670;DHT22;51080;51.690;5.174;2023-04-24T23:27:05;6.80;77.70
64670;DHT22;51080;51.690;5.174;2023-04-24T23:33:21;6.80;77.90
64670;DHT22;51080;51.690;5.174;2023-04-24T23:39:36;6.80;77.60
64670;DHT22;51080;51.690;5.174;2023-04-24T23:45:50;6.80;78.00
64670;DHT22;51080;51.690;5.174;2023-04-24T23:52:05;6.80;77.70
64670;DHT22;51080;51.690;5.174;2023-04-24T23:58:19;6.70;77.50
